Time;durP1;ratioP1;P1;durP2;ratioP2;P2;SDS_P1;SDS_P2;PMS_P1;PMS_P2;Temp;Humidity;BMP_temperature;BMP_pressure;BME280_temperature;BME280_humidity;BME280_pressure;Samples;Min_cycle;Max_cycle;Signal;HPM_P1;HPM_P2
2022/04/07 00:02:09;;;;;;;2.95;1.65;;;14.60;79.20;;;;;;5107169;27;20141;-60
2022/04/07 00:04:34;;;;;;;3.70;1.65;;;14.60;79.40;;;;;;5125231;27;20038;-59
2022/04/07 00:07:00;;;;;;;2.95;1.30;;;14.60;79.50;;;;;;5124686;27;20042;-60
2022/04/07 00:09:26;;;;;;;3.13;1.55;;;14.60;79.80;;;;;;5119152;27;20030;-59
2022/04/07 00:11:51;;;;;;;3.50;1.40;;;14.50;80.00;;;;;;5123905;27;20039;-60
2022/04/07 00:14:17;;;;;;;4.13;1.40;;;14.50;80.20;;;;;;5122493;27;20376;-59
2022/04/07 00:16:42;;;;;;;1.95;1.15;;;14.50;80.20;;;;;;5122765;27;20023;-59
2022/04/07 00:19:09;;;;;;;1.63;1.25;;;14.50;80.50;;;;;;5120996;27;20054;-60
2022/04/07 00:21:40;;;;;;;1.45;1.17;;;14.50;80.40;;;;;;5123325;27;20068;-59
2022/04/07 00:24:06;;;;;;;2.70;1.67;;;14.50;80.70;;;;;;5123056;27;20034;-59
2022/04/07 00:26:32;;;;;;;1.83;1.50;;;14.40;80.70;;;;;;5124659;27;20077;-59
2022/04/07 00:28:58;;;;;;;2.38;1.75;;;14.40;80.80;;;;;;5105705;27;20026;-59
2022/04/07 00:31:24;;;;;;;2.60;1.48;;;14.40;81.00;;;;;;5112414;27;20059;-60
2022/04/07 00:33:50;;;;;;;2.17;1.77;;;14.40;81.40;;;;;;5084945;28;20484;-60
2022/04/07 00:36:15;;;;;;;2.85;1.60;;;14.30;81.40;;;;;;5104342;27;20100;-60
2022/04/07 00:38:41;;;;;;;7.55;1.90;;;14.30;81.70;;;;;;5088219;27;20108;-60
2022/04/07 00:41:06;;;;;;;4.30;1.65;;;14.30;81.80;;;;;;5099782;27;20032;-59
2022/04/07 00:43:33;;;;;;;4.00;1.60;;;14.30;82.00;;;;;;5102098;27;20027;-60
2022/04/07 00:45:59;;;;;;;6.97;1.88;;;14.30;81.70;;;;;;5087390;28;20016;-59
2022/04/07 00:48:25;;;;;;;13.73;2.28;;;14.30;81.90;;;;;;5085932;27;20023;-60
2022/04/07 00:50:51;;;;;;;8.07;1.90;;;14.30;82.30;;;;;;5111447;27;20177;-60
2022/04/07 00:53:16;;;;;;;3.67;2.05;;;14.20;82.40;;;;;;5093887;27;20102;-60
2022/04/07 00:55:42;;;;;;;9.45;1.83;;;14.20;82.50;;;;;;5087605;28;20061;-60
2022/04/07 00:58:07;;;;;;;7.57;1.95;;;14.20;82.60;;;;;;5072168;28;20443;-59
2022/04/07 01:00:34;;;;;;;11.00;1.55;;;14.20;82.60;;;;;;5102766;27;20457;-59
2022/04/07 01:03:00;;;;;;;11.05;2.15;;;14.20;82.80;;;;;;5090701;28;20023;-60
2022/04/07 01:05:25;;;;;;;8.05;2.03;;;14.20;83.00;;;;;;5082394;28;20028;-60
2022/04/07 01:07:51;;;;;;;5.57;2.08;;;14.20;83.00;;;;;;5102741;27;20043;-60
2022/04/07 01:10:16;;;;;;;8.15;1.58;;;14.20;83.10;;;;;;5110065;27;20072;-61
2022/04/07 01:12:42;;;;;;;10.65;1.85;;;14.20;83.20;;;;;;5071823;28;20032;-60
2022/04/07 01:15:08;;;;;;;11.70;1.95;;;14.20;83.50;;;;;;5092600;27;20028;-60
2022/04/07 01:17:34;;;;;;;6.95;1.70;;;14.20;83.50;;;;;;5074149;27;20902;-60
2022/04/07 01:20:03;;;;;;;8.65;1.60;;;14.20;83.60;;;;;;5091141;27;20129;-59
2022/04/07 01:22:29;;;;;;;7.22;1.70;;;14.20;83.70;;;;;;5118501;27;20027;-60
2022/04/07 01:24:54;;;;;;;4.18;1.80;;;14.10;83.70;;;;;;5111439;27;20525;-59
2022/04/07 01:27:20;;;;;;;7.03;1.52;;;14.10;83.70;;;;;;5112851;27;20069;-60
2022/04/07 01:29:46;;;;;;;3.75;1.52;;;14.10;83.80;;;;;;5082913;27;20047;-61
2022/04/07 01:32:23;;;;;;;1.20;1.00;;;14.00;83.90;;;;;;5103817;28;20107;-59
2022/04/07 01:34:48;;;;;;;2.03;1.20;;;14.00;83.90;;;;;;5082677;28;20505;-60
2022/04/07 01:37:14;;;;;;;5.88;1.30;;;14.00;84.00;;;;;;5078880;27;20114;-61
2022/04/07 01:39:40;;;;;;;3.30;1.10;;;14.00;84.00;;;;;;5054551;28;20063;-59
2022/04/07 01:42:07;;;;;;;6.93;1.30;;;14.00;84.00;;;;;;5080664;28;20032;-61
2022/04/07 01:44:32;;;;;;;4.57;1.25;;;14.00;84.00;;;;;;5071385;27;20386;-60
2022/04/07 01:46:58;;;;;;;5.28;1.35;;;13.90;83.90;;;;;;5084162;27;20110;-59
2022/04/07 01:49:23;;;;;;;5.13;1.23;;;13.90;84.00;;;;;;5085959;27;20037;-60
2022/04/07 01:51:50;;;;;;;6.82;1.33;;;13.90;84.00;;;;;;5109493;27;20027;-61
2022/04/07 01:54:15;;;;;;;1.25;1.02;;;13.90;84.00;;;;;;5075271;28;20035;-60
2022/04/07 01:56:41;;;;;;;3.00;1.35;;;13.90;84.00;;;;;;5086814;28;20030;-60
2022/04/07 01:59:08;;;;;;;2.72;1.30;;;13.90;84.00;;;;;;5081878;28;20498;-59
2022/04/07 02:01:34;;;;;;;1.73;1.10;;;13.90;84.00;;;;;;5071628;28;20552;-59
2022/04/07 02:03:59;;;;;;;2.08;0.88;;;13.80;83.90;;;;;;5082295;28;20023;-59
2022/04/07 02:06:25;;;;;;;2.03;0.90;;;13.90;83.90;;;;;;5100264;27;20031;-60
2022/04/07 02:08:51;;;;;;;1.63;1.17;;;13.80;83.90;;;;;;5082178;28;20110;-60
2022/04/07 02:11:16;;;;;;;2.58;1.20;;;13.80;83.90;;;;;;5102114;27;20136;-59
2022/04/07 02:13:42;;;;;;;4.18;1.10;;;13.80;83.90;;;;;;5085052;27;20113;-60
2022/04/07 02:16:09;;;;;;;1.83;1.00;;;13.80;83.90;;;;;;5084597;27;20015;-60
2022/04/07 02:18:35;;;;;;;3.85;0.80;;;13.80;83.90;;;;;;5065283;28;20097;-59
2022/04/07 02:21:00;;;;;;;3.50;1.60;;;13.80;83.90;;;;;;5087804;27;20019;-59
2022/04/07 02:23:27;;;;;;;3.45;2.47;;;13.80;83.90;;;;;;5102291;28;20035;-59
2022/04/07 02:25:52;;;;;;;4.30;1.67;;;13.70;83.70;;;;;;5098827;27;20031;-61
2022/04/07 02:28:18;;;;;;;4.75;1.30;;;13.70;83.70;;;;;;5087329;27;20038;-60
2022/04/07 02:30:45;;;;;;;2.55;1.30;;;13.70;83.60;;;;;;5066986;28;20043;-61
2022/04/07 02:33:11;;;;;;;4.50;1.33;;;13.80;83.60;;;;;;5067328;28;20038;-60
2022/04/07 02:35:36;;;;;;;3.00;1.20;;;13.70;83.50;;;;;;5100140;28;20032;-60
2022/04/07 02:38:01;;;;;;;3.22;1.08;;;13.70;83.50;;;;;;5101420;27;20031;-61
2022/04/07 02:40:27;;;;;;;1.42;1.20;;;13.70;83.40;;;;;;5099510;28;20023;-60
2022/04/07 02:42:52;;;;;;;1.40;1.23;;;13.70;83.20;;;;;;5103475;28;20481;-61
2022/04/07 02:45:18;;;;;;;12.13;1.35;;;13.70;83.20;;;;;;5083344;28;20023;-59
2022/04/07 02:47:43;;;;;;;1.95;1.35;;;13.70;83.20;;;;;;5099936;28;20443;-60
2022/04/07 02:50:09;;;;;;;3.45;1.27;;;13.60;83.00;;;;;;5081257;28;20474;-60
2022/04/07 02:52:35;;;;;;;3.80;1.25;;;13.60;83.00;;;;;;5095570;28;20035;-60
2022/04/07 02:55:00;;;;;;;2.85;1.15;;;13.60;83.00;;;;;;5099982;28;20101;-61
2022/04/07 02:57:30;;;;;;;4.22;0.95;;;13.60;82.90;;;;;;5083592;28;20060;-59
2022/04/07 02:59:59;;;;;;;3.47;1.17;;;13.60;82.80;;;;;;5096479;28;20016;-60
2022/04/07 03:02:25;;;;;;;2.72;1.15;;;13.60;82.80;;;;;;5069973;28;20062;-60
2022/04/07 03:04:50;;;;;;;1.25;1.00;;;13.60;82.80;;;;;;5095984;28;20079;-60
2022/04/07 03:07:16;;;;;;;2.85;1.15;;;13.60;82.60;;;;;;5103248;28;20630;-60
2022/04/07 03:09:41;;;;;;;1.55;0.90;;;13.60;82.70;;;;;;5080649;28;20063;-60
2022/04/07 03:12:08;;;;;;;1.48;1.10;;;13.50;82.50;;;;;;5070660;28;20120;-60
2022/04/07 03:14:33;;;;;;;2.95;1.27;;;13.50;82.30;;;;;;5090645;28;20045;-60
2022/04/07 03:16:59;;;;;;;3.30;0.98;;;13.50;82.20;;;;;;5062420;28;20051;-61
2022/04/07 03:19:24;;;;;;;3.45;1.52;;;13.50;82.30;;;;;;5100827;28;20058;-59
2022/04/07 03:21:50;;;;;;;3.60;1.50;;;13.50;82.30;;;;;;5100289;28;20019;-60
2022/04/07 03:24:15;;;;;;;2.63;1.67;;;13.50;82.30;;;;;;5099337;28;20038;-59
2022/04/07 03:26:41;;;;;;;2.33;1.75;;;13.50;82.20;;;;;;5101357;28;20048;-60
2022/04/07 03:29:06;;;;;;;1.88;1.70;;;13.50;82.10;;;;;;5101380;28;20058;-60
2022/04/07 03:31:32;;;;;;;4.57;2.20;;;13.50;82.00;;;;;;5105717;28;20086;-60
2022/04/07 03:33:57;;;;;;;5.10;1.77;;;13.50;82.00;;;;;;5102727;28;20059;-60
2022/04/07 03:36:23;;;;;;;2.28;1.77;;;13.50;81.90;;;;;;5101061;28;20533;-60
2022/04/07 03:38:51;;;;;;;3.58;2.15;;;13.40;81.80;;;;;;5081062;28;20062;-61
2022/04/07 03:41:17;;;;;;;3.63;2.13;;;13.50;82.00;;;;;;5104875;28;20394;-59
2022/04/07 03:43:43;;;;;;;2.33;2.05;;;13.40;81.90;;;;;;5104363;28;20675;-60
2022/04/07 03:46:09;;;;;;;3.13;2.22;;;13.40;82.00;;;;;;5095769;28;20043;-61
2022/04/07 03:48:35;;;;;;;3.58;2.40;;;13.40;81.80;;;;;;5087349;28;20110;-59
2022/04/07 03:51:00;;;;;;;3.50;2.10;;;13.40;81.90;;;;;;5087136;28;20106;-59
2022/04/07 03:53:26;;;;;;;4.18;2.92;;;13.40;81.90;;;;;;5088832;28;20371;-61
2022/04/07 03:55:51;;;;;;;5.28;3.20;;;13.40;81.70;;;;;;5082320;28;20505;-59
2022/04/07 03:58:17;;;;;;;4.68;2.25;;;13.40;81.60;;;;;;5102860;28;20023;-60
2022/04/07 04:00:42;;;;;;;2.83;2.42;;;13.40;81.40;;;;;;5083807;28;20035;-60
2022/04/07 04:03:08;;;;;;;1.90;1.70;;;13.40;81.40;;;;;;5050690;28;20123;-60
2022/04/07 04:05:34;;;;;;;3.67;2.10;;;13.40;81.40;;;;;;5109210;28;20356;-62
2022/04/07 04:07:59;;;;;;;3.58;2.20;;;13.40;81.40;;;;;;5110869;28;20066;-59
2022/04/07 04:10:25;;;;;;;4.00;2.55;;;13.30;81.30;;;;;;5081122;28;20020;-59
2022/04/07 04:12:51;;;;;;;3.60;2.05;;;13.40;81.30;;;;;;5090921;28;20406;-60
2022/04/07 04:15:16;;;;;;;2.60;1.90;;;13.20;81.20;;;;;;5082644;28;20035;-60
2022/04/07 04:17:42;;;;;;;3.25;2.20;;;13.30;81.20;;;;;;5087081;28;20032;-61
2022/04/07 04:20:08;;;;;;;2.20;1.88;;;13.30;81.20;;;;;;5100874;28;20024;-60
2022/04/07 04:22:33;;;;;;;4.55;1.85;;;13.30;81.10;;;;;;5078877;28;20031;-59
2022/04/07 04:24:59;;;;;;;2.88;2.20;;;13.30;81.00;;;;;;5097753;27;20044;-60
2022/04/07 04:27:24;;;;;;;3.65;2.00;;;13.30;80.90;;;;;;5105515;27;20368;-60
2022/04/07 04:29:50;;;;;;;2.95;1.95;;;13.20;80.70;;;;;;5105493;27;20254;-59
2022/04/07 04:32:15;;;;;;;19.60;3.08;;;13.20;80.70;;;;;;5104758;27;20372;-61
2022/04/07 04:34:41;;;;;;;88.63;10.20;;;13.30;80.70;;;;;;5106607;27;20084;-60
2022/04/07 04:37:07;;;;;;;124.30;12.07;;;13.30;80.50;;;;;;5089408;27;20027;-60
2022/04/07 04:39:32;;;;;;;115.55;12.27;;;13.30;80.50;;;;;;5100748;27;20040;-60
2022/04/07 04:41:58;;;;;;;511.33;43.63;;;13.20;80.40;;;;;;5106220;27;20462;-60
2022/04/07 04:44:23;;;;;;;287.42;26.40;;;13.20;80.30;;;;;;5090171;28;20050;-60
2022/04/07 04:46:49;;;;;;;161.68;17.00;;;13.20;80.30;;;;;;5107939;27;20043;-60
2022/04/07 04:49:14;;;;;;;139.30;13.82;;;13.20;80.20;;;;;;5089879;27;20568;-60
2022/04/07 04:51:40;;;;;;;148.85;13.77;;;13.20;80.20;;;;;;5085470;28;20152;-60
2022/04/07 04:54:05;;;;;;;149.80;13.65;;;13.20;80.80;;;;;;5092380;28;20044;-60
2022/04/07 04:56:31;;;;;;;124.20;10.82;;;13.20;80.00;;;;;;5106341;27;20118;-60
2022/04/07 04:58:57;;;;;;;109.80;11.93;;;13.20;80.00;;;;;;5106744;27;20521;-60
2022/04/07 05:01:25;;;;;;;114.47;12.18;;;13.20;80.00;;;;;;5106650;27;20284;-61
2022/04/07 05:03:51;;;;;;;111.82;9.43;;;13.20;79.90;;;;;;5074763;27;20056;-60
2022/04/07 05:06:17;;;;;;;95.15;11.38;;;13.10;79.70;;;;;;5088719;28;20028;-60
2022/04/07 05:08:42;;;;;;;89.57;8.40;;;13.10;79.70;;;;;;5086980;28;20028;-60
2022/04/07 05:11:08;;;;;;;55.45;7.13;;;13.10;79.70;;;;;;5106811;27;20436;-60
2022/04/07 05:13:33;;;;;;;61.92;7.70;;;13.10;79.50;;;;;;5106529;27;20046;-60
2022/04/07 05:15:59;;;;;;;79.38;8.95;;;13.10;79.40;;;;;;5104088;27;20123;-60
2022/04/07 05:18:24;;;;;;;68.88;7.95;;;13.10;79.40;;;;;;5108548;27;20051;-59
2022/04/07 05:20:50;;;;;;;59.13;7.32;;;13.10;79.50;;;;;;5103683;27;20234;-60
2022/04/07 05:23:15;;;;;;;63.22;7.07;;;13.10;79.50;;;;;;5104383;27;20428;-60
2022/04/07 05:25:41;;;;;;;73.53;7.45;;;13.20;79.50;;;;;;5104749;27;20036;-59
2022/04/07 05:28:06;;;;;;;45.08;6.30;;;13.10;79.50;;;;;;5083700;28;20023;-60
2022/04/07 05:30:32;;;;;;;61.47;6.47;;;13.10;79.50;;;;;;5110883;27;20077;-61
2022/04/07 05:32:57;;;;;;;56.45;6.10;;;13.20;79.40;;;;;;5073757;28;20084;-61
2022/04/07 05:35:26;;;;;;;48.70;5.30;;;13.20;79.20;;;;;;5064905;27;20416;-60
2022/04/07 05:37:59;;;;;;;53.53;6.43;;;13.20;79.20;;;;;;5073267;27;20052;-60
2022/04/07 05:40:24;;;;;;;43.65;5.47;;;13.10;79.80;;;;;;5080592;28;20019;-61
2022/04/07 05:42:50;;;;;;;40.20;4.80;;;13.20;79.20;;;;;;5105418;27;20029;-60
2022/04/07 05:45:15;;;;;;;26.80;4.13;;;13.10;79.20;;;;;;5100713;27;20032;-60
2022/04/07 05:47:41;;;;;;;38.25;5.18;;;13.10;79.30;;;;;;5100822;27;20028;-60
2022/04/07 05:50:07;;;;;;;39.05;4.65;;;13.10;79.30;;;;;;5099926;27;20111;-60
2022/04/07 05:52:33;;;;;;;28.35;4.28;;;13.10;79.20;;;;;;5086475;27;20039;-60
2022/04/07 05:54:58;;;;;;;33.28;4.65;;;13.20;79.30;;;;;;5102742;27;20038;-61
2022/04/07 05:57:30;;;;;;;40.45;4.90;;;13.10;79.30;;;;;;5089862;27;21557;-60
2022/04/07 06:00:00;;;;;;;32.67;4.65;;;13.10;79.20;;;;;;5077754;27;20036;-60
2022/04/07 06:02:26;;;;;;;36.75;5.20;;;13.10;79.10;;;;;;5096646;27;20032;-59
2022/04/07 06:04:51;;;;;;;34.20;3.30;;;13.10;79.00;;;;;;5079430;28;20093;-61
2022/04/07 06:07:17;;;;;;;27.85;4.05;;;13.10;78.90;;;;;;5101518;28;20035;-60
2022/04/07 06:09:42;;;;;;;29.95;3.78;;;13.10;78.70;;;;;;5067652;28;20035;-60
2022/04/07 06:12:09;;;;;;;23.08;2.92;;;13.10;78.50;;;;;;5105112;27;20117;-59
2022/04/07 06:14:34;;;;;;;25.35;4.22;;;13.10;78.40;;;;;;5082159;27;20038;-61
2022/04/07 06:17:02;;;;;;;62.78;4.90;;;13.10;78.20;;;;;;5082618;27;20099;-60
2022/04/07 06:19:27;;;;;;;30.58;4.07;;;13.10;78.10;;;;;;5082540;27;20062;-60
2022/04/07 06:21:53;;;;;;;28.42;3.38;;;13.10;77.90;;;;;;5081395;27;20122;-60
2022/04/07 06:24:18;;;;;;;32.60;4.15;;;13.10;77.90;;;;;;5103270;27;20198;-61
2022/04/07 06:26:44;;;;;;;27.88;4.57;;;13.10;77.90;;;;;;5070654;28;20067;-60
2022/04/07 06:29:09;;;;;;;33.78;4.03;;;13.10;77.70;;;;;;5094670;27;20054;-59
2022/04/07 06:31:34;;;;;;;29.50;4.07;;;13.10;77.70;;;;;;5097874;27;20665;-60
2022/04/07 06:34:00;;;;;;;28.98;3.25;;;13.10;77.60;;;;;;5113255;27;20039;-60
2022/04/07 06:36:27;;;;;;;45.17;3.90;;;13.10;77.30;;;;;;5086329;27;20070;-60
2022/04/07 06:38:52;;;;;;;37.78;4.40;;;13.10;77.20;;;;;;5118698;27;20118;-60
2022/04/07 06:41:18;;;;;;;24.55;2.67;;;13.10;77.20;;;;;;5119025;27;20572;-60
2022/04/07 06:43:43;;;;;;;35.63;4.28;;;13.20;77.20;;;;;;5119274;27;20047;-59
2022/04/07 06:46:09;;;;;;;28.85;3.90;;;13.10;77.00;;;;;;5119016;27;20171;-60
2022/04/07 06:48:34;;;;;;;19.00;2.05;;;13.20;76.90;;;;;;5119655;27;20123;-61
2022/04/07 06:51:00;;;;;;;32.80;3.92;;;13.10;76.90;;;;;;5101499;27;20023;-60
2022/04/07 06:53:25;;;;;;;29.25;4.10;;;13.10;76.80;;;;;;5101931;27;20027;-60
2022/04/07 06:55:51;;;;;;;24.15;2.83;;;13.20;76.80;;;;;;5117342;27;20395;-60
2022/04/07 06:58:20;;;;;;;19.05;2.70;;;13.20;76.70;;;;;;5092809;27;20364;-60
2022/04/07 07:00:46;;;;;;;26.63;3.88;;;13.20;76.60;;;;;;5100118;27;20401;-60
2022/04/07 07:03:13;;;;;;;21.42;3.38;;;13.20;76.40;;;;;;5083742;28;20046;-60
2022/04/07 07:05:38;;;;;;;24.65;3.83;;;13.20;76.30;;;;;;5091658;28;20147;-60
2022/04/07 07:08:12;;;;;;;46.97;4.03;;;13.20;76.20;;;;;;5088515;27;20136;-59
2022/04/07 07:10:37;;;;;;;41.35;4.18;;;13.30;76.00;;;;;;5094548;27;20031;-60
2022/04/07 07:13:03;;;;;;;33.95;4.07;;;13.30;76.00;;;;;;5109034;27;20471;-60
2022/04/07 07:15:28;;;;;;;29.02;4.00;;;13.30;76.00;;;;;;5079161;27;20035;-60
2022/04/07 07:17:54;;;;;;;39.55;4.78;;;13.30;75.70;;;;;;5109849;27;20510;-60
2022/04/07 07:20:19;;;;;;;67.50;5.50;;;13.30;75.60;;;;;;5095333;27;20118;-60
2022/04/07 07:22:45;;;;;;;54.30;6.13;;;13.30;75.40;;;;;;5118365;28;20043;-59
2022/04/07 07:25:11;;;;;;;66.78;7.47;;;13.40;75.40;;;;;;5099075;28;20015;-59
2022/04/07 07:27:41;;;;;;;90.03;8.80;;;13.40;75.40;;;;;;5081201;28;20039;-59
2022/04/07 07:30:10;;;;;;;49.83;6.47;;;13.40;75.20;;;;;;5084926;28;20131;-60
2022/04/07 07:32:36;;;;;;;60.13;6.25;;;13.40;75.10;;;;;;5077685;28;20079;-60
2022/04/07 07:35:03;;;;;;;44.65;5.85;;;13.40;75.00;;;;;;5094153;28;20032;-58
2022/04/07 07:37:28;;;;;;;68.78;6.20;;;13.40;75.00;;;;;;5073146;28;20119;-60
2022/04/07 07:39:54;;;;;;;39.70;5.05;;;13.40;74.80;;;;;;5074802;28;20115;-60
2022/04/07 07:42:19;;;;;;;45.00;5.65;;;13.40;74.90;;;;;;5073929;28;20030;-60
2022/04/07 07:44:45;;;;;;;34.38;5.07;;;13.50;74.90;;;;;;5091609;28;20049;-60
2022/04/07 07:47:10;;;;;;;39.35;5.22;;;13.50;74.60;;;;;;5061587;28;20039;-60
2022/04/07 07:49:36;;;;;;;46.33;5.40;;;13.40;74.50;;;;;;5086401;28;20027;-60
2022/04/07 07:52:02;;;;;;;51.50;5.97;;;13.50;74.50;;;;;;5092136;28;20028;-60
2022/04/07 07:54:27;;;;;;;52.65;6.85;;;13.50;74.40;;;;;;5076117;28;21463;-60
2022/04/07 07:56:54;;;;;;;35.22;4.53;;;13.60;74.40;;;;;;5097054;28;20027;-59
2022/04/07 07:59:20;;;;;;;29.70;4.78;;;13.60;74.20;;;;;;5057224;28;20736;-59
2022/04/07 08:01:46;;;;;;;42.55;4.30;;;13.60;74.00;;;;;;5095822;28;20042;-59
2022/04/07 08:04:12;;;;;;;48.83;5.50;;;13.60;73.90;;;;;;5093097;28;20031;-60
2022/04/07 08:06:38;;;;;;;41.58;5.93;;;13.60;74.00;;;;;;5080964;28;20127;-59
2022/04/07 08:09:04;;;;;;;37.00;5.68;;;13.60;74.00;;;;;;5097126;28;20042;-59
2022/04/07 08:11:30;;;;;;;68.50;6.75;;;13.70;74.20;;;;;;5091060;28;20047;-61
2022/04/07 08:13:55;;;;;;;54.28;5.30;;;13.70;74.30;;;;;;5098267;28;20032;-59
2022/04/07 08:16:25;;;;;;;49.03;5.63;;;13.70;74.40;;;;;;5073682;28;20039;-61
2022/04/07 08:18:50;;;;;;;37.22;4.82;;;13.70;74.50;;;;;;5076646;28;20031;-60
2022/04/07 08:21:16;;;;;;;65.07;6.47;;;13.70;74.50;;;;;;5091155;28;20777;-59
2022/04/07 08:23:41;;;;;;;44.70;5.35;;;13.70;74.70;;;;;;5080146;28;23468;-60
2022/04/07 08:26:07;;;;;;;74.28;7.35;;;13.70;74.70;;;;;;5090885;27;20032;-59
2022/04/07 08:28:32;;;;;;;58.13;7.28;;;13.80;74.90;;;;;;5096758;28;20058;-59
2022/04/07 08:30:58;;;;;;;37.67;5.78;;;13.80;74.80;;;;;;5099666;27;20044;-60
2022/04/07 08:33:23;;;;;;;40.95;5.35;;;13.80;75.00;;;;;;5118164;27;20031;-60
2022/04/07 08:35:51;;;;;;;50.58;5.78;;;13.90;75.50;;;;;;5108538;27;20032;-60
2022/04/07 08:38:16;;;;;;;64.10;6.22;;;13.90;75.40;;;;;;5113623;27;20047;-60
2022/04/07 08:40:42;;;;;;;186.50;20.17;;;13.90;75.60;;;;;;5114295;27;20047;-60
2022/04/07 08:43:09;;;;;;;143.50;14.05;;;13.90;75.60;;;;;;5117943;27;20516;-60
2022/04/07 08:45:36;;;;;;;104.43;9.15;;;14.00;75.70;;;;;;5066959;28;20105;-60
2022/04/07 08:48:02;;;;;;;59.53;7.32;;;14.00;75.60;;;;;;5108411;27;20023;-60
2022/04/07 08:50:27;;;;;;;63.70;7.57;;;14.10;75.30;;;;;;5068070;27;20027;-60
2022/04/07 08:52:53;;;;;;;65.00;8.05;;;14.10;75.30;;;;;;5102158;27;20028;-60
2022/04/07 08:55:19;;;;;;;46.90;5.50;;;14.10;75.40;;;;;;5077814;27;20673;-60
2022/04/07 08:57:44;;;;;;;45.75;5.85;;;14.30;75.40;;;;;;5116783;27;20130;-60
2022/04/07 09:00:10;;;;;;;77.03;8.65;;;14.20;75.40;;;;;;5099828;27;20023;-59
2022/04/07 09:02:36;;;;;;;114.90;11.52;;;14.20;75.50;;;;;;5101597;27;20674;-60
2022/04/07 09:05:02;;;;;;;80.93;11.52;;;14.20;75.60;;;;;;5093096;27;20286;-60
2022/04/07 09:07:31;;;;;;;98.35;10.93;;;14.30;75.80;;;;;;5090489;27;20023;-59
2022/04/07 09:09:59;;;;;;;57.80;6.93;;;14.30;75.80;;;;;;5092257;27;20058;-60
2022/04/07 09:12:24;;;;;;;74.22;7.53;;;14.30;75.40;;;;;;5085838;27;20047;-60
2022/04/07 09:14:53;;;;;;;64.75;8.60;;;14.40;75.20;;;;;;5068363;28;20047;-60
2022/04/07 09:17:19;;;;;;;64.80;5.32;;;14.40;75.10;;;;;;5087387;27;20051;-60
2022/04/07 09:19:48;;;;;;;71.78;8.15;;;14.40;74.90;;;;;;5052652;28;20779;-59
2022/04/07 09:22:14;;;;;;;57.53;6.43;;;14.50;75.50;;;;;;5088064;27;20111;-61
2022/04/07 09:24:40;;;;;;;77.40;9.15;;;14.50;74.80;;;;;;5092492;27;20044;-60
2022/04/07 09:27:07;;;;;;;57.45;6.75;;;14.50;74.80;;;;;;5078655;27;20050;-59
2022/04/07 09:29:46;;;;;;;65.57;7.55;;;14.60;74.80;;;;;;5069212;27;20460;-59
2022/04/07 09:32:22;;;;;;;68.72;8.82;;;14.60;74.70;;;;;;5111277;27;20103;-59
2022/04/07 09:35:00;;;;;;;65.40;7.72;;;14.60;74.80;;;;;;5071543;27;20122;-60
2022/04/07 09:37:27;;;;;;;54.30;7.00;;;14.60;74.80;;;;;;5097814;27;20767;-60
2022/04/07 09:40:06;;;;;;;66.13;8.38;;;14.60;74.80;;;;;;5108249;27;20019;-60
2022/04/07 09:42:33;;;;;;;79.75;8.65;;;14.60;75.80;;;;;;5097351;27;20066;-61
2022/04/07 09:45:01;;;;;;;66.15;7.32;;;14.70;74.70;;;;;;5095559;27;20046;-59
2022/04/07 09:47:49;;;;;;;55.42;6.75;;;14.70;74.40;;;;;;5080779;27;20075;-59
2022/04/07 09:50:21;;;;;;;80.78;8.48;;;14.80;74.30;;;;;;5098636;27;20111;-60
2022/04/07 09:53:00;;;;;;;99.60;10.80;;;14.80;74.20;;;;;;5106255;27;20612;-60
2022/04/07 09:55:40;;;;;;;76.68;8.48;;;14.80;74.40;;;;;;5110723;27;21096;-59
2022/04/07 09:58:08;;;;;;;74.10;7.78;;;14.80;74.20;;;;;;5101880;27;20734;-59
2022/04/07 10:00:35;;;;;;;126.18;11.82;;;14.90;74.10;;;;;;5096924;27;20024;-60
2022/04/07 10:03:02;;;;;;;94.88;11.23;;;14.90;74.70;;;;;;5096985;27;20460;-59
2022/04/07 10:05:32;;;;;;;103.20;11.18;;;15.00;74.60;;;;;;5113366;27;20401;-60
2022/04/07 10:07:58;;;;;;;114.97;12.00;;;15.00;74.20;;;;;;5068457;27;20073;-59
2022/04/07 10:10:24;;;;;;;160.93;17.23;;;15.00;73.90;;;;;;5096494;27;20111;-60
2022/04/07 10:12:50;;;;;;;165.30;15.77;;;15.10;74.00;;;;;;5088818;27;20089;-60
2022/04/07 10:15:16;;;;;;;148.68;16.38;;;15.10;74.10;;;;;;5101937;27;20618;-61
2022/04/07 10:17:42;;;;;;;154.77;18.05;;;15.20;74.00;;;;;;5089661;27;20067;-61
2022/04/07 10:20:09;;;;;;;141.02;15.27;;;15.20;74.20;;;;;;5073420;27;20123;-60
2022/04/07 10:22:41;;;;;;;185.70;18.00;;;15.30;73.90;;;;;;5098604;27;20035;-59
2022/04/07 10:25:06;;;;;;;163.52;17.42;;;15.30;73.70;;;;;;5108527;27;20785;-60
2022/04/07 10:27:49;;;;;;;118.22;14.25;;;15.30;73.60;;;;;;5070457;27;20047;-60
2022/04/07 10:30:16;;;;;;;140.75;14.45;;;15.40;73.40;;;;;;5091033;27;20050;-60
2022/04/07 10:32:49;;;;;;;118.68;12.85;;;15.40;73.30;;;;;;5058304;27;20065;-59
2022/04/07 10:35:28;;;;;;;100.97;10.40;;;15.40;73.10;;;;;;5093547;27;20031;-61
2022/04/07 10:37:54;;;;;;;109.43;13.43;;;15.40;72.80;;;;;;5084578;27;20027;-62
2022/04/07 10:40:35;;;;;;;170.35;18.20;;;15.50;72.90;;;;;;5071914;27;20437;-60
2022/04/07 10:43:03;;;;;;;179.75;17.85;;;15.50;73.60;;;;;;5086838;27;21071;-60
2022/04/07 10:45:33;;;;;;;133.65;16.55;;;15.40;73.60;;;;;;5103946;27;20137;-60
2022/04/07 10:48:29;;;;;;;161.43;18.80;;;15.50;73.50;;;;;;5098176;27;20051;-60
2022/04/07 10:50:59;;;;;;;189.70;19.35;;;15.60;73.50;;;;;;5064916;27;20161;-60
2022/04/07 10:53:34;;;;;;;149.80;18.80;;;15.70;73.40;;;;;;5093185;27;20046;-64
2022/04/07 10:56:13;;;;;;;191.85;20.08;;;15.70;73.40;;;;;;5086147;27;20027;-60
2022/04/07 10:58:48;;;;;;;155.90;18.30;;;15.70;73.50;;;;;;5091921;28;20050;-60
2022/04/07 11:01:30;;;;;;;158.23;16.48;;;15.70;73.70;;;;;;5087818;28;20034;-59
2022/04/07 11:04:23;;;;;;;137.85;17.38;;;15.80;73.70;;;;;;5101461;27;20602;-59
2022/04/07 11:07:16;;;;;;;177.13;18.98;;;15.80;73.90;;;;;;5084928;27;20042;-59
2022/04/07 11:09:48;;;;;;;151.65;19.45;;;15.80;74.10;;;;;;5109043;27;20347;-59
2022/04/07 11:12:23;;;;;;;154.40;17.88;;;15.80;74.10;;;;;;5082771;28;21220;-59
2022/04/07 11:14:50;;;;;;;261.33;27.65;;;15.80;74.10;;;;;;5087269;28;20036;-60
2022/04/07 11:17:34;;;;;;;153.35;16.83;;;15.90;74.00;;;;;;5072043;27;20052;-61
2022/04/07 11:20:16;;;;;;;167.05;16.85;;;15.90;74.10;;;;;;5109258;27;20571;-59
2022/04/07 11:22:58;;;;;;;142.38;18.65;;;15.90;74.20;;;;;;5088051;28;20092;-59
2022/04/07 11:25:33;;;;;;;133.48;15.70;;;15.90;74.30;;;;;;5110434;27;20054;-59
2022/04/07 11:28:22;;;;;;;175.70;17.58;;;15.90;74.30;;;;;;5085535;28;20040;-59
2022/04/07 11:30:54;;;;;;;145.52;14.40;;;15.90;74.50;;;;;;5089453;27;20035;-58
2022/04/07 11:36:00;;;;;;;142.30;16.35;;;15.90;74.90;;;;;;5113537;27;20192;-59
2022/04/07 11:38:30;;;;;;;150.73;16.35;;;15.90;75.00;;;;;;5116451;27;20084;-60
2022/04/07 11:41:06;;;;;;;149.25;14.82;;;15.90;75.50;;;;;;5064168;27;20110;-62
2022/04/07 11:43:34;;;;;;;80.93;10.73;;;15.90;75.10;;;;;;5115787;27;20074;-62
2022/04/07 11:46:00;;;;;;;54.35;6.95;;;15.90;74.90;;;;;;5099687;27;20026;-59
2022/04/07 11:48:31;;;;;;;72.25;9.25;;;15.90;74.90;;;;;;5095472;27;20555;-59
2022/04/07 11:51:00;;;;;;;89.32;10.25;;;15.90;74.80;;;;;;5099020;27;20048;-59
2022/04/07 11:53:29;;;;;;;98.93;9.50;;;15.90;74.90;;;;;;5101851;27;20739;-60
2022/04/07 11:55:54;;;;;;;88.57;11.25;;;15.90;74.80;;;;;;5083420;27;20095;-61
2022/04/07 11:58:20;;;;;;;82.20;11.20;;;15.90;75.20;;;;;;5082852;27;20562;-59
2022/04/07 12:00:46;;;;;;;74.22;9.20;;;15.90;75.20;;;;;;5096181;27;20104;-59
2022/04/07 12:03:11;;;;;;;57.75;7.50;;;15.90;75.10;;;;;;5076621;27;20058;-60
2022/04/07 12:05:38;;;;;;;79.53;8.85;;;15.90;75.10;;;;;;5117394;27;20041;-60
2022/04/07 12:08:10;;;;;;;80.10;7.82;;;15.90;75.40;;;;;;5102731;27;20098;-65
2022/04/07 12:10:37;;;;;;;63.90;8.45;;;15.90;75.40;;;;;;5101919;27;20023;-65
2022/04/07 12:13:02;;;;;;;69.70;8.80;;;15.90;75.50;;;;;;5093063;27;20032;-61
2022/04/07 12:15:28;;;;;;;64.93;8.13;;;15.90;75.40;;;;;;5095899;27;20507;-62
2022/04/07 12:18:04;;;;;;;74.55;10.60;;;15.80;75.60;;;;;;5100983;27;20102;-59
2022/04/07 12:20:30;;;;;;;112.78;12.00;;;16.00;75.50;;;;;;5116492;27;20065;-61
2022/04/07 12:23:08;;;;;;;97.45;11.48;;;16.00;76.00;;;;;;5083120;27;20035;-59
2022/04/07 12:25:34;;;;;;;73.38;9.07;;;16.00;76.00;;;;;;5078052;27;20019;-59
2022/04/07 12:28:11;;;;;;;66.38;9.45;;;16.00;75.70;;;;;;5096923;27;20478;-59
2022/04/07 12:30:46;;;;;;;118.32;13.57;;;16.00;75.80;;;;;;5089932;27;20127;-62
2022/04/07 12:33:32;;;;;;;;;;;16.00;76.40;;;;;;5098106;27;20059;-59
2022/04/07 12:35:57;;;;;;;77.50;7.88;;;16.00;76.30;;;;;;5103173;27;20000;-62
2022/04/07 12:38:23;;;;;;;111.30;11.15;;;16.00;76.10;;;;;;5099209;27;20108;-62
2022/04/07 12:40:49;;;;;;;47.70;6.57;;;16.00;76.00;;;;;;5077337;27;20399;-62